Hauptseite
Satellitenwetter 10-Tage PrognosenKlimaSeewetter Wirbelstürme Blitz FlughäfenFAQ Newsletter Über uns
Wetter : Europa Afrika Nordamerika Südamerika Asien Australien-Ozeanien Andere
Sprachen Kontakt

Newquay Cornwall, England

Newquay Cornwall Airport

Breite: 50-26N, Länge: 005-00W, Höhe: 119 m


METAR: EGHQ 270650Z 00000KT CAVOK 08/02 Q1013
TAF: EGHQ 270629Z 2707/2715 36004KT CAVOK PROB40 TEMPO 2707/2715 7000 SHRA BKN040 BECMG 2709/2712 30012KT

Zeit: 08:05 (07:05 UTC)

Beobachtung

Neuester Wetterbericht von vor 15 Minuten, um 06:50 UTC
Windstille
Temperatur 8°C
Luftfeuchtigkeit 66%
Luftdruck 1013 hPa
Sichtweite 10 km oder mehr
keine Wolken unter 1500 m und keine Kumulonimbus oder Gewitterwolken

Maßeinheiten ändern

Prognose

Neuester Wetterbericht von vor 36 Minuten, um 06:29 UTC
Gültige Prognose vom 27 um 07 UTC bis 27 um 15 UTC
Wind 4 kt aus Nord
Sichtweite 10 km oder mehr
keine Wolken unter 1500 m und keine Kumulonimbus oder Gewitterwolken
Wahrscheinlichkeit 40% :
Zeitweise
vom 27 um 07 UTC bis 27 um 15 UTC
Sichtweite: 7000 m
Durchbrochene Bewölkung in der Höhe von 4000 ft
Regenschauer
Übergehend zu
vom 27 um 09 UTC bis 27 um 12 UTC
Wind 12 kt aus West/Nordwest
Die Angaben auf diesen Webseiten unterliegen einer Erklärung über den Haftungsausschluss
Wetter : Europa Afrika Nordamerika Südamerika Asien Australien-Ozeanien Andere
Satellitenwetter 10-Tage PrognosenKlimaSeewetter Wirbelstürme Blitz FlughäfenFAQ Sprachen Kontakt Newsletter Über uns